sensor_id;sensor_type;location;lat;lon;timestamp;temperature;humidity
21563;DHT22;10942;47.894;11.424;2022-12-19T00:01:22;-4.90;99.90
21563;DHT22;10942;47.894;11.424;2022-12-19T00:03:55;-4.80;99.90
21563;DHT22;10942;47.894;11.424;2022-12-19T00:06:22;-4.80;99.90
21563;DHT22;10942;47.894;11.424;2022-12-19T00:08:50;-4.70;99.90
21563;DHT22;10942;47.894;11.424;2022-12-19T00:11:18;-4.70;99.90
21563;DHT22;10942;47.894;11.424;2022-12-19T00:13:45;-4.70;99.90
21563;DHT22;10942;47.894;11.424;2022-12-19T00:16:13;-4.60;99.90
21563;DHT22;10942;47.894;11.424;2022-12-19T00:18:41;-4.70;99.90
21563;DHT22;10942;47.894;11.424;2022-12-19T00:21:08;-4.60;99.90
21563;DHT22;10942;47.894;11.424;2022-12-19T00:23:35;-4.60;99.90
21563;DHT22;10942;47.894;11.424;2022-12-19T00:26:10;-4.70;99.90
21563;DHT22;10942;47.894;11.424;2022-12-19T00:28:37;-4.80;99.90
21563;DHT22;10942;47.894;11.424;2022-12-19T00:31:03;-4.80;99.90
21563;DHT22;10942;47.894;11.424;2022-12-19T00:33:29;-4.90;99.90
21563;DHT22;10942;47.894;11.424;2022-12-19T00:36:03;-4.90;99.90
21563;DHT22;10942;47.894;11.424;2022-12-19T00:38:31;-4.80;99.90
21563;DHT22;10942;47.894;11.424;2022-12-19T00:41:11;-4.70;99.90
21563;DHT22;10942;47.894;11.424;2022-12-19T00:43:38;-4.70;99.90
21563;DHT22;10942;47.894;11.424;2022-12-19T00:46:06;-4.70;99.90
21563;DHT22;10942;47.894;11.424;2022-12-19T00:48:32;-4.70;99.90
21563;DHT22;10942;47.894;11.424;2022-12-19T00:51:13;-4.60;99.90
21563;DHT22;10942;47.894;11.424;2022-12-19T00:53:41;-4.60;99.90
21563;DHT22;10942;47.894;11.424;2022-12-19T00:56:11;-4.60;99.90
21563;DHT22;10942;47.894;11.424;2022-12-19T00:58:37;-4.50;99.90
21563;DHT22;10942;47.894;11.424;2022-12-19T01:01:10;-4.50;99.90
21563;DHT22;10942;47.894;11.424;2022-12-19T01:03:36;-4.50;99.90
21563;DHT22;10942;47.894;11.424;2022-12-19T01:06:02;-4.50;99.90
21563;DHT22;10942;47.894;11.424;2022-12-19T01:08:28;-4.40;99.90
21563;DHT22;10942;47.894;11.424;2022-12-19T01:10:54;-4.40;99.90
21563;DHT22;10942;47.894;11.424;2022-12-19T01:13:22;-4.40;99.90
21563;DHT22;10942;47.894;11.424;2022-12-19T01:15:48;-4.40;99.90
21563;DHT22;10942;47.894;11.424;2022-12-19T01:18:14;-4.40;99.90
21563;DHT22;10942;47.894;11.424;2022-12-19T01:20:42;-4.40;99.90
21563;DHT22;10942;47.894;11.424;2022-12-19T01:23:08;-4.40;99.90
21563;DHT22;10942;47.894;11.424;2022-12-19T01:25:35;-4.30;99.90
21563;DHT22;10942;47.894;11.424;2022-12-19T01:28:03;-4.40;99.90
21563;DHT22;10942;47.894;11.424;2022-12-19T01:30:31;-4.40;99.90
21563;DHT22;10942;47.894;11.424;2022-12-19T01:32:58;-4.40;99.90
21563;DHT22;10942;47.894;11.424;2022-12-19T01:35:26;-4.40;99.90
21563;DHT22;10942;47.894;11.424;2022-12-19T01:37:53;-4.30;99.90
21563;DHT22;10942;47.894;11.424;2022-12-19T01:40:19;-4.30;99.90
21563;DHT22;10942;47.894;11.424;2022-12-19T01:42:46;-4.30;99.90
21563;DHT22;10942;47.894;11.424;2022-12-19T01:47:52;-4.30;99.90
21563;DHT22;10942;47.894;11.424;2022-12-19T01:50:30;-4.30;99.90
21563;DHT22;10942;47.894;11.424;2022-12-19T01:52:57;-4.30;99.90
21563;DHT22;10942;47.894;11.424;2022-12-19T01:55:24;-4.30;99.90
21563;DHT22;10942;47.894;11.424;2022-12-19T01:57:51;-4.30;99.90
21563;DHT22;10942;47.894;11.424;2022-12-19T02:00:18;-4.20;99.90
21563;DHT22;10942;47.894;11.424;2022-12-19T02:02:58;-4.20;99.90
21563;DHT22;10942;47.894;11.424;2022-12-19T02:05:25;-4.30;99.90
21563;DHT22;10942;47.894;11.424;2022-12-19T02:07:52;-4.30;99.90
21563;DHT22;10942;47.894;11.424;2022-12-19T02:10:18;-4.20;99.90
21563;DHT22;10942;47.894;11.424;2022-12-19T02:12:44;-4.20;99.90
21563;DHT22;10942;47.894;11.424;2022-12-19T02:15:13;-4.30;99.90
21563;DHT22;10942;47.894;11.424;2022-12-19T02:23:53;-4.20;99.90
21563;DHT22;10942;47.894;11.424;2022-12-19T02:26:55;-4.20;99.90
21563;DHT22;10942;47.894;11.424;2022-12-19T02:34:55;-4.20;99.90
21563;DHT22;10942;47.894;11.424;2022-12-19T02:37:29;-4.10;99.90
21563;DHT22;10942;47.894;11.424;2022-12-19T02:40:04;-4.10;99.90
21563;DHT22;10942;47.894;11.424;2022-12-19T02:42:34;-4.20;99.90
21563;DHT22;10942;47.894;11.424;2022-12-19T02:45:04;-4.10;99.90
21563;DHT22;10942;47.894;11.424;2022-12-19T02:47:31;-4.10;99.90
21563;DHT22;10942;47.894;11.424;2022-12-19T02:50:00;-4.10;99.90
21563;DHT22;10942;47.894;11.424;2022-12-19T02:55:02;-4.10;99.90
21563;DHT22;10942;47.894;11.424;2022-12-19T03:00:19;-4.00;99.90
21563;DHT22;10942;47.894;11.424;2022-12-19T03:05:26;-3.90;99.90
21563;DHT22;10942;47.894;11.424;2022-12-19T03:08:06;-3.90;99.90
21563;DHT22;10942;47.894;11.424;2022-12-19T03:11:00;-3.90;99.90
21563;DHT22;10942;47.894;11.424;2022-12-19T03:13:46;-3.80;99.90
21563;DHT22;10942;47.894;11.424;2022-12-19T03:16:13;-3.90;99.90
21563;DHT22;10942;47.894;11.424;2022-12-19T03:18:39;-3.80;99.90
21563;DHT22;10942;47.894;11.424;2022-12-19T03:21:28;-3.80;99.90
21563;DHT22;10942;47.894;11.424;2022-12-19T03:23:56;-3.80;99.90
21563;DHT22;10942;47.894;11.424;2022-12-19T03:26:26;-3.80;99.90
21563;DHT22;10942;47.894;11.424;2022-12-19T03:31:25;-3.80;99.90
21563;DHT22;10942;47.894;11.424;2022-12-19T03:34:02;-3.80;99.90
21563;DHT22;10942;47.894;11.424;2022-12-19T03:36:45;-3.70;99.90
21563;DHT22;10942;47.894;11.424;2022-12-19T03:39:11;-3.70;99.90
21563;DHT22;10942;47.894;11.424;2022-12-19T03:41:38;-3.80;99.90
21563;DHT22;10942;47.894;11.424;2022-12-19T03:44:27;-3.80;99.90
21563;DHT22;10942;47.894;11.424;2022-12-19T03:46:59;-3.80;99.90
21563;DHT22;10942;47.894;11.424;2022-12-19T03:49:28;-3.70;99.90
21563;DHT22;10942;47.894;11.424;2022-12-19T03:55:17;-3.80;99.90
21563;DHT22;10942;47.894;11.424;2022-12-19T03:57:46;-3.70;99.90
21563;DHT22;10942;47.894;11.424;2022-12-19T04:00:16;-3.70;99.90
21563;DHT22;10942;47.894;11.424;2022-12-19T04:02:46;-3.60;99.90
21563;DHT22;10942;47.894;11.424;2022-12-19T04:05:18;-3.70;99.90
21563;DHT22;10942;47.894;11.424;2022-12-19T04:07:45;-3.60;99.90
21563;DHT22;10942;47.894;11.424;2022-12-19T04:10:17;-3.60;99.90
21563;DHT22;10942;47.894;11.424;2022-12-19T04:12:52;-3.60;99.90
21563;DHT22;10942;47.894;11.424;2022-12-19T04:15:25;-3.60;99.90
21563;DHT22;10942;47.894;11.424;2022-12-19T04:17:57;-3.60;99.90
21563;DHT22;10942;47.894;11.424;2022-12-19T04:20:24;-3.50;99.90
21563;DHT22;10942;47.894;11.424;2022-12-19T04:23:02;-3.60;99.90
21563;DHT22;10942;47.894;11.424;2022-12-19T04:25:34;-3.60;99.90
21563;DHT22;10942;47.894;11.424;2022-12-19T04:28:44;-3.50;99.90
21563;DHT22;10942;47.894;11.424;2022-12-19T04:31:14;-3.50;99.90
21563;DHT22;10942;47.894;11.424;2022-12-19T04:33:41;-3.60;99.90
21563;DHT22;10942;47.894;11.424;2022-12-19T04:36:07;-3.50;99.90
21563;DHT22;10942;47.894;11.424;2022-12-19T04:38:33;-3.50;99.90
21563;DHT22;10942;47.894;11.424;2022-12-19T04:40:59;-3.40;99.90
21563;DHT22;10942;47.894;11.424;2022-12-19T04:43:24;-3.40;99.90
21563;DHT22;10942;47.894;11.424;2022-12-19T04:45:50;-3.40;99.90
21563;DHT22;10942;47.894;11.424;2022-12-19T04:48:15;-3.40;99.90
21563;DHT22;10942;47.894;11.424;2022-12-19T04:50:41;-3.40;99.90
21563;DHT22;10942;47.894;11.424;2022-12-19T04:53:07;-3.40;99.90
21563;DHT22;10942;47.894;11.424;2022-12-19T04:55:32;-3.40;99.90
21563;DHT22;10942;47.894;11.424;2022-12-19T04:57:58;-3.40;99.90
21563;DHT22;10942;47.894;11.424;2022-12-19T05:00:24;-3.50;99.90
21563;DHT22;10942;47.894;11.424;2022-12-19T05:02:50;-3.40;99.90
21563;DHT22;10942;47.894;11.424;2022-12-19T05:05:15;-3.40;99.90
21563;DHT22;10942;47.894;11.424;2022-12-19T05:07:43;-3.40;99.90
21563;DHT22;10942;47.894;11.424;2022-12-19T05:10:09;-3.50;99.90
21563;DHT22;10942;47.894;11.424;2022-12-19T05:12:34;-3.40;99.90
21563;DHT22;10942;47.894;11.424;2022-12-19T05:15:00;-3.40;99.90
21563;DHT22;10942;47.894;11.424;2022-12-19T05:17:26;-3.30;99.90
21563;DHT22;10942;47.894;11.424;2022-12-19T05:19:51;-3.30;99.90
21563;DHT22;10942;47.894;11.424;2022-12-19T05:22:17;-3.20;99.90
21563;DHT22;10942;47.894;11.424;2022-12-19T05:24:43;-3.20;99.90
21563;DHT22;10942;47.894;11.424;2022-12-19T05:27:09;-3.20;99.90
21563;DHT22;10942;47.894;11.424;2022-12-19T05:29:34;-3.20;99.90
21563;DHT22;10942;47.894;11.424;2022-12-19T05:32:00;-3.20;99.90
21563;DHT22;10942;47.894;11.424;2022-12-19T05:34:26;-3.10;99.90
21563;DHT22;10942;47.894;11.424;2022-12-19T05:36:52;-3.10;99.90
21563;DHT22;10942;47.894;11.424;2022-12-19T05:39:17;-3.10;99.90
21563;DHT22;10942;47.894;11.424;2022-12-19T05:41:43;-3.10;99.90
21563;DHT22;10942;47.894;11.424;2022-12-19T05:44:09;-3.00;99.90
21563;DHT22;10942;47.894;11.424;2022-12-19T05:46:35;-3.00;99.90
21563;DHT22;10942;47.894;11.424;2022-12-19T05:49:00;-3.00;99.90
21563;DHT22;10942;47.894;11.424;2022-12-19T05:51:54;-3.00;99.90
21563;DHT22;10942;47.894;11.424;2022-12-19T05:54:19;-3.00;99.90
21563;DHT22;10942;47.894;11.424;2022-12-19T05:56:45;-2.90;99.90
21563;DHT22;10942;47.894;11.424;2022-12-19T05:59:11;-2.90;99.90
21563;DHT22;10942;47.894;11.424;2022-12-19T06:01:36;-3.00;99.90
21563;DHT22;10942;47.894;11.424;2022-12-19T06:04:02;-3.00;99.90
21563;DHT22;10942;47.894;11.424;2022-12-19T06:06:28;-2.90;99.90
21563;DHT22;10942;47.894;11.424;2022-12-19T06:08:56;-2.90;99.90
21563;DHT22;10942;47.894;11.424;2022-12-19T06:11:22;-2.80;99.90
21563;DHT22;10942;47.894;11.424;2022-12-19T06:13:48;-2.80;99.90
21563;DHT22;10942;47.894;11.424;2022-12-19T06:16:16;-2.90;99.90
21563;DHT22;10942;47.894;11.424;2022-12-19T06:18:43;-2.80;99.90
21563;DHT22;10942;47.894;11.424;2022-12-19T06:21:20;-2.80;99.90
21563;DHT22;10942;47.894;11.424;2022-12-19T06:23:46;-2.80;99.90
21563;DHT22;10942;47.894;11.424;2022-12-19T06:26:15;-2.80;99.90
21563;DHT22;10942;47.894;11.424;2022-12-19T06:28:41;-2.70;99.90
21563;DHT22;10942;47.894;11.424;2022-12-19T06:31:06;-2.70;99.90
21563;DHT22;10942;47.894;11.424;2022-12-19T06:33:32;-2.70;99.90
21563;DHT22;10942;47.894;11.424;2022-12-19T06:36:04;-2.70;99.90
21563;DHT22;10942;47.894;11.424;2022-12-19T06:38:30;-2.70;99.90
21563;DHT22;10942;47.894;11.424;2022-12-19T06:40:56;-2.70;99.90
21563;DHT22;10942;47.894;11.424;2022-12-19T06:43:41;-2.70;99.90
21563;DHT22;10942;47.894;11.424;2022-12-19T06:46:07;-2.60;99.90
21563;DHT22;10942;47.894;11.424;2022-12-19T06:48:33;-2.60;99.90
21563;DHT22;10942;47.894;11.424;2022-12-19T06:50:58;-2.60;99.90
21563;DHT22;10942;47.894;11.424;2022-12-19T06:53:24;-2.60;99.90
21563;DHT22;10942;47.894;11.424;2022-12-19T06:55:52;-2.60;99.90
21563;DHT22;10942;47.894;11.424;2022-12-19T06:58:19;-2.60;99.90
21563;DHT22;10942;47.894;11.424;2022-12-19T07:00:45;-2.60;99.90
21563;DHT22;10942;47.894;11.424;2022-12-19T07:03:12;-2.60;99.90
21563;DHT22;10942;47.894;11.424;2022-12-19T07:05:39;-2.60;99.90
21563;DHT22;10942;47.894;11.424;2022-12-19T07:08:07;-2.60;99.90
21563;DHT22;10942;47.894;11.424;2022-12-19T07:10:33;-2.60;99.90
21563;DHT22;10942;47.894;11.424;2022-12-19T07:12:59;-2.70;99.90
21563;DHT22;10942;47.894;11.424;2022-12-19T07:15:25;-2.60;99.90
21563;DHT22;10942;47.894;11.424;2022-12-19T07:17:51;-2.60;99.90
21563;DHT22;10942;47.894;11.424;2022-12-19T07:20:18;-2.50;99.90
21563;DHT22;10942;47.894;11.424;2022-12-19T07:22:45;-2.50;99.90
21563;DHT22;10942;47.894;11.424;2022-12-19T07:25:12;-2.50;99.90
21563;DHT22;10942;47.894;11.424;2022-12-19T07:27:38;-2.40;99.90
21563;DHT22;10942;47.894;11.424;2022-12-19T07:30:04;-2.40;99.90
21563;DHT22;10942;47.894;11.424;2022-12-19T07:32:31;-2.30;99.90
21563;DHT22;10942;47.894;11.424;2022-12-19T07:34:56;-2.30;99.90
21563;DHT22;10942;47.894;11.424;2022-12-19T07:37:22;-2.30;99.90
21563;DHT22;10942;47.894;11.424;2022-12-19T07:39:48;-2.20;99.90
21563;DHT22;10942;47.894;11.424;2022-12-19T07:42:13;-2.20;99.90
21563;DHT22;10942;47.894;11.424;2022-12-19T07:44:39;-2.10;99.90
21563;DHT22;10942;47.894;11.424;2022-12-19T07:47:08;-2.10;99.90
21563;DHT22;10942;47.894;11.424;2022-12-19T07:49:34;-2.10;99.90
21563;DHT22;10942;47.894;11.424;2022-12-19T07:52:00;-2.00;99.90
21563;DHT22;10942;47.894;11.424;2022-12-19T07:54:25;-2.00;99.90
21563;DHT22;10942;47.894;11.424;2022-12-19T07:56:51;-2.00;99.90
21563;DHT22;10942;47.894;11.424;2022-12-19T07:59:17;-2.00;99.90
21563;DHT22;10942;47.894;11.424;2022-12-19T08:01:43;-1.90;99.90
21563;DHT22;10942;47.894;11.424;2022-12-19T08:04:08;-1.80;99.90
21563;DHT22;10942;47.894;11.424;2022-12-19T08:06:34;-1.80;99.90
21563;DHT22;10942;47.894;11.424;2022-12-19T08:09:00;-1.70;99.90
21563;DHT22;10942;47.894;11.424;2022-12-19T08:11:25;-1.70;99.90
21563;DHT22;10942;47.894;11.424;2022-12-19T08:13:55;-1.60;99.90
21563;DHT22;10942;47.894;11.424;2022-12-19T08:16:23;-1.50;99.90
21563;DHT22;10942;47.894;11.424;2022-12-19T08:18:49;-1.50;99.90
21563;DHT22;10942;47.894;11.424;2022-12-19T08:21:15;-1.40;99.90
21563;DHT22;10942;47.894;11.424;2022-12-19T08:23:41;-1.30;99.90
21563;DHT22;10942;47.894;11.424;2022-12-19T08:26:10;-1.20;99.90
21563;DHT22;10942;47.894;11.424;2022-12-19T08:28:36;-1.20;99.90
21563;DHT22;10942;47.894;11.424;2022-12-19T08:31:13;-1.10;99.90
21563;DHT22;10942;47.894;11.424;2022-12-19T08:33:39;-0.90;99.90
21563;DHT22;10942;47.894;11.424;2022-12-19T08:36:10;-0.90;99.90
21563;DHT22;10942;47.894;11.424;2022-12-19T08:38:37;-0.70;99.90
21563;DHT22;10942;47.894;11.424;2022-12-19T08:41:04;-0.60;99.90
21563;DHT22;10942;47.894;11.424;2022-12-19T08:43:31;-0.60;99.90
21563;DHT22;10942;47.894;11.424;2022-12-19T08:45:57;-0.60;99.90
21563;DHT22;10942;47.894;11.424;2022-12-19T08:48:22;-0.50;99.90
21563;DHT22;10942;47.894;11.424;2022-12-19T08:50:52;-0.40;99.90
21563;DHT22;10942;47.894;11.424;2022-12-19T08:53:19;-0.40;99.90
21563;DHT22;10942;47.894;11.424;2022-12-19T08:55:45;-0.50;99.90
21563;DHT22;10942;47.894;11.424;2022-12-19T08:58:11;-0.40;99.90
21563;DHT22;10942;47.894;11.424;2022-12-19T09:00:37;-0.50;99.90
21563;DHT22;10942;47.894;11.424;2022-12-19T09:03:03;-0.60;99.90
21563;DHT22;10942;47.894;11.424;2022-12-19T09:05:28;-0.50;99.90
21563;DHT22;10942;47.894;11.424;2022-12-19T09:07:54;-0.40;99.90
21563;DHT22;10942;47.894;11.424;2022-12-19T09:10:20;-0.30;99.90
21563;DHT22;10942;47.894;11.424;2022-12-19T09:12:45;-0.30;99.90
21563;DHT22;10942;47.894;11.424;2022-12-19T09:15:11;-0.30;99.90
21563;DHT22;10942;47.894;11.424;2022-12-19T09:17:37;-0.20;99.90
21563;DHT22;10942;47.894;11.424;2022-12-19T09:20:03;-0.10;99.90
21563;DHT22;10942;47.894;11.424;2022-12-19T09:22:29;0.00;99.90
21563;DHT22;10942;47.894;11.424;2022-12-19T09:24:54;0.00;99.90
21563;DHT22;10942;47.894;11.424;2022-12-19T09:27:20;0.00;99.90
21563;DHT22;10942;47.894;11.424;2022-12-19T09:29:46;0.10;99.90
21563;DHT22;10942;47.894;11.424;2022-12-19T09:32:12;0.10;99.90
21563;DHT22;10942;47.894;11.424;2022-12-19T09:34:37;0.20;99.90
21563;DHT22;10942;47.894;11.424;2022-12-19T09:37:04;0.20;99.90
21563;DHT22;10942;47.894;11.424;2022-12-19T09:39:30;0.30;99.90
21563;DHT22;10942;47.894;11.424;2022-12-19T09:42:00;0.30;99.90
21563;DHT22;10942;47.894;11.424;2022-12-19T09:47:15;0.30;99.90
21563;DHT22;10942;47.894;11.424;2022-12-19T09:49:44;0.30;99.90
21563;DHT22;10942;47.894;11.424;2022-12-19T09:52:31;1.00;99.90
21563;DHT22;10942;47.894;11.424;2022-12-19T09:55:01;0.50;99.90
21563;DHT22;10942;47.894;11.424;2022-12-19T10:00:44;0.60;99.90
21563;DHT22;10942;47.894;11.424;2022-12-19T10:03:20;0.70;99.90
21563;DHT22;10942;47.894;11.424;2022-12-19T10:06:06;0.70;99.90
21563;DHT22;10942;47.894;11.424;2022-12-19T10:08:39;0.70;99.90
21563;DHT22;10942;47.894;11.424;2022-12-19T10:11:20;0.80;99.90
21563;DHT22;10942;47.894;11.424;2022-12-19T10:14:19;1.00;99.90
21563;DHT22;10942;47.894;11.424;2022-12-19T10:17:02;1.00;99.90
21563;DHT22;10942;47.894;11.424;2022-12-19T10:22:35;1.30;99.90
21563;DHT22;10942;47.894;11.424;2022-12-19T10:25:25;1.50;99.90
21563;DHT22;10942;47.894;11.424;2022-12-19T10:30:50;1.70;99.90
21563;DHT22;10942;47.894;11.424;2022-12-19T10:33:34;1.70;99.90
21563;DHT22;10942;47.894;11.424;2022-12-19T10:36:00;2.00;99.90
21563;DHT22;10942;47.894;11.424;2022-12-19T10:38:37;2.30;99.90
21563;DHT22;10942;47.894;11.424;2022-12-19T10:41:18;2.80;99.90
21563;DHT22;10942;47.894;11.424;2022-12-19T10:44:05;3.10;99.90
21563;DHT22;10942;47.894;11.424;2022-12-19T10:46:45;3.30;99.90
21563;DHT22;10942;47.894;11.424;2022-12-19T10:49:16;3.40;99.90
21563;DHT22;10942;47.894;11.424;2022-12-19T10:54:25;3.90;99.90
21563;DHT22;10942;47.894;11.424;2022-12-19T10:56:50;4.10;99.90
21563;DHT22;10942;47.894;11.424;2022-12-19T10:59:18;4.30;99.90
21563;DHT22;10942;47.894;11.424;2022-12-19T11:01:45;4.60;99.90
21563;DHT22;10942;47.894;11.424;2022-12-19T11:12:10;5.20;99.90
21563;DHT22;10942;47.894;11.424;2022-12-19T11:14:39;5.20;99.90
21563;DHT22;10942;47.894;11.424;2022-12-19T11:19:56;5.00;99.90
21563;DHT22;10942;47.894;11.424;2022-12-19T11:22:33;5.10;99.90
21563;DHT22;10942;47.894;11.424;2022-12-19T11:25:00;5.00;99.90
21563;DHT22;10942;47.894;11.424;2022-12-19T11:27:33;4.70;99.90
21563;DHT22;10942;47.894;11.424;2022-12-19T11:30:00;4.40;99.90
21563;DHT22;10942;47.894;11.424;2022-12-19T11:32:37;4.10;99.90
21563;DHT22;10942;47.894;11.424;2022-12-19T11:35:27;4.00;99.90
21563;DHT22;10942;47.894;11.424;2022-12-19T11:37:55;4.00;99.90
21563;DHT22;10942;47.894;11.424;2022-12-19T11:40:39;3.90;99.90
21563;DHT22;10942;47.894;11.424;2022-12-19T11:46:01;3.90;99.90
21563;DHT22;10942;47.894;11.424;2022-12-19T11:48:36;3.80;99.90
21563;DHT22;10942;47.894;11.424;2022-12-19T11:51:36;3.70;99.90
21563;DHT22;10942;47.894;11.424;2022-12-19T11:56:36;3.50;99.90
21563;DHT22;10942;47.894;11.424;2022-12-19T11:59:18;3.50;99.90
21563;DHT22;10942;47.894;11.424;2022-12-19T12:01:54;3.50;99.90
21563;DHT22;10942;47.894;11.424;2022-12-19T12:07:13;3.50;99.90
21563;DHT22;10942;47.894;11.424;2022-12-19T12:09:58;3.50;99.90
21563;DHT22;10942;47.894;11.424;2022-12-19T12:15:27;3.40;99.90
21563;DHT22;10942;47.894;11.424;2022-12-19T12:23:37;3.50;99.90
21563;DHT22;10942;47.894;11.424;2022-12-19T12:31:37;3.60;99.90
21563;DHT22;10942;47.894;11.424;2022-12-19T12:34:14;3.60;99.90
21563;DHT22;10942;47.894;11.424;2022-12-19T12:36:58;3.60;99.90
21563;DHT22;10942;47.894;11.424;2022-12-19T12:42:35;3.40;99.90
21563;DHT22;10942;47.894;11.424;2022-12-19T12:45:21;3.20;99.90
21563;DHT22;10942;47.894;11.424;2022-12-19T12:47:50;3.20;99.90
21563;DHT22;10942;47.894;11.424;2022-12-19T12:50:19;3.10;99.90
21563;DHT22;10942;47.894;11.424;2022-12-19T12:52:59;3.20;99.90
21563;DHT22;10942;47.894;11.424;2022-12-19T12:55:32;3.10;99.90
21563;DHT22;10942;47.894;11.424;2022-12-19T12:58:00;3.00;99.90
21563;DHT22;10942;47.894;11.424;2022-12-19T13:00:28;3.10;99.90
21563;DHT22;10942;47.894;11.424;2022-12-19T13:11:14;3.20;99.90
21563;DHT22;10942;47.894;11.424;2022-12-19T13:23:04;3.20;99.90
21563;DHT22;10942;47.894;11.424;2022-12-19T13:25:46;3.00;99.90
21563;DHT22;10942;47.894;11.424;2022-12-19T13:28:38;2.80;99.90
21563;DHT22;10942;47.894;11.424;2022-12-19T13:36:46;2.50;99.90
21563;DHT22;10942;47.894;11.424;2022-12-19T13:39:23;2.60;99.90
21563;DHT22;10942;47.894;11.424;2022-12-19T13:42:01;2.70;99.90
21563;DHT22;10942;47.894;11.424;2022-12-19T13:44:48;2.70;99.90
21563;DHT22;10942;47.894;11.424;2022-12-19T13:47:14;2.80;99.90
21563;DHT22;10942;47.894;11.424;2022-12-19T13:49:42;2.80;99.90
21563;DHT22;10942;47.894;11.424;2022-12-19T13:52:10;2.70;99.90
21563;DHT22;10942;47.894;11.424;2022-12-19T13:54:48;2.70;99.90
21563;DHT22;10942;47.894;11.424;2022-12-19T13:57:23;2.70;99.90
21563;DHT22;10942;47.894;11.424;2022-12-19T13:59:53;2.90;99.90
21563;DHT22;10942;47.894;11.424;2022-12-19T14:02:31;2.80;99.90
21563;DHT22;10942;47.894;11.424;2022-12-19T14:04:58;2.80;99.90
21563;DHT22;10942;47.894;11.424;2022-12-19T14:09:59;2.70;99.90
21563;DHT22;10942;47.894;11.424;2022-12-19T14:12:30;2.60;99.90
21563;DHT22;10942;47.894;11.424;2022-12-19T14:15:37;2.50;99.90
21563;DHT22;10942;47.894;11.424;2022-12-19T14:20:49;2.40;99.90
21563;DHT22;10942;47.894;11.424;2022-12-19T14:23:16;2.40;99.90
21563;DHT22;10942;47.894;11.424;2022-12-19T14:25:51;2.40;99.90
21563;DHT22;10942;47.894;11.424;2022-12-19T14:28:24;2.30;99.90
21563;DHT22;10942;47.894;11.424;2022-12-19T14:31:01;2.30;99.90
21563;DHT22;10942;47.894;11.424;2022-12-19T14:33:36;2.30;99.90
21563;DHT22;10942;47.894;11.424;2022-12-19T14:36:04;2.20;99.90
21563;DHT22;10942;47.894;11.424;2022-12-19T14:38:32;2.20;99.90
21563;DHT22;10942;47.894;11.424;2022-12-19T14:40:59;2.20;99.90
21563;DHT22;10942;47.894;11.424;2022-12-19T14:43:28;2.10;99.90
21563;DHT22;10942;47.894;11.424;2022-12-19T14:46:25;2.10;99.90
21563;DHT22;10942;47.894;11.424;2022-12-19T14:49:00;2.00;99.90
21563;DHT22;10942;47.894;11.424;2022-12-19T14:51:37;2.00;99.90
21563;DHT22;10942;47.894;11.424;2022-12-19T14:56:50;1.90;99.90
21563;DHT22;10942;47.894;11.424;2022-12-19T14:59:34;1.90;99.90
21563;DHT22;10942;47.894;11.424;2022-12-19T15:04:39;1.80;99.90
21563;DHT22;10942;47.894;11.424;2022-12-19T15:07:05;1.80;99.90
21563;DHT22;10942;47.894;11.424;2022-12-19T15:12:23;1.70;99.90
21563;DHT22;10942;47.894;11.424;2022-12-19T15:17:45;1.60;99.90
21563;DHT22;10942;47.894;11.424;2022-12-19T15:20:10;1.60;99.90
21563;DHT22;10942;47.894;11.424;2022-12-19T15:22:36;1.50;99.90
21563;DHT22;10942;47.894;11.424;2022-12-19T15:25:02;1.50;99.90
21563;DHT22;10942;47.894;11.424;2022-12-19T15:27:28;1.50;99.90
21563;DHT22;10942;47.894;11.424;2022-12-19T15:29:53;1.50;99.90
21563;DHT22;10942;47.894;11.424;2022-12-19T15:32:19;1.40;99.90
21563;DHT22;10942;47.894;11.424;2022-12-19T15:34:45;1.40;99.90
21563;DHT22;10942;47.894;11.424;2022-12-19T15:37:15;1.40;99.90
21563;DHT22;10942;47.894;11.424;2022-12-19T15:39:42;1.30;99.90
21563;DHT22;10942;47.894;11.424;2022-12-19T15:42:22;1.30;99.90
21563;DHT22;10942;47.894;11.424;2022-12-19T15:44:50;1.30;99.90
21563;DHT22;10942;47.894;11.424;2022-12-19T15:47:30;1.20;99.90
21563;DHT22;10942;47.894;11.424;2022-12-19T15:49:56;1.20;99.90
21563;DHT22;10942;47.894;11.424;2022-12-19T15:52:26;1.20;99.90
21563;DHT22;10942;47.894;11.424;2022-12-19T15:54:52;1.20;99.90
21563;DHT22;10942;47.894;11.424;2022-12-19T15:57:31;1.10;99.90
21563;DHT22;10942;47.894;11.424;2022-12-19T16:00:02;1.10;99.90
21563;DHT22;10942;47.894;11.424;2022-12-19T16:02:31;1.10;99.90
21563;DHT22;10942;47.894;11.424;2022-12-19T16:04:57;1.00;99.90
21563;DHT22;10942;47.894;11.424;2022-12-19T16:07:23;1.00;99.90
21563;DHT22;10942;47.894;11.424;2022-12-19T16:09:52;0.90;99.90
21563;DHT22;10942;47.894;11.424;2022-12-19T16:12:35;0.90;99.90
21563;DHT22;10942;47.894;11.424;2022-12-19T16:15:02;0.90;99.90
21563;DHT22;10942;47.894;11.424;2022-12-19T16:17:31;0.90;99.90
21563;DHT22;10942;47.894;11.424;2022-12-19T16:19:57;0.90;99.90
21563;DHT22;10942;47.894;11.424;2022-12-19T16:22:25;0.80;99.90
21563;DHT22;10942;47.894;11.424;2022-12-19T16:24:52;0.80;99.90
21563;DHT22;10942;47.894;11.424;2022-12-19T16:27:29;0.80;99.90
21563;DHT22;10942;47.894;11.424;2022-12-19T16:29:58;0.80;99.90
21563;DHT22;10942;47.894;11.424;2022-12-19T16:32:26;0.80;99.90
21563;DHT22;10942;47.894;11.424;2022-12-19T16:34:52;0.80;99.90
21563;DHT22;10942;47.894;11.424;2022-12-19T16:37:19;0.80;99.90
21563;DHT22;10942;47.894;11.424;2022-12-19T16:39:44;0.80;99.90
21563;DHT22;10942;47.894;11.424;2022-12-19T16:42:15;0.80;99.90
21563;DHT22;10942;47.894;11.424;2022-12-19T16:44:41;0.80;99.90
21563;DHT22;10942;47.894;11.424;2022-12-19T16:47:16;0.70;99.90
21563;DHT22;10942;47.894;11.424;2022-12-19T16:49:42;0.70;99.90
21563;DHT22;10942;47.894;11.424;2022-12-19T16:52:09;0.70;99.90
21563;DHT22;10942;47.894;11.424;2022-12-19T16:54:35;0.70;99.90
21563;DHT22;10942;47.894;11.424;2022-12-19T16:57:01;0.70;99.90
21563;DHT22;10942;47.894;11.424;2022-12-19T16:59:40;0.70;99.90
21563;DHT22;10942;47.894;11.424;2022-12-19T17:02:53;0.70;99.90
21563;DHT22;10942;47.894;11.424;2022-12-19T17:05:28;0.70;99.90
21563;DHT22;10942;47.894;11.424;2022-12-19T17:07:54;0.70;99.90
21563;DHT22;10942;47.894;11.424;2022-12-19T17:10:22;0.70;99.90
21563;DHT22;10942;47.894;11.424;2022-12-19T17:12:49;0.70;99.90
21563;DHT22;10942;47.894;11.424;2022-12-19T17:15:31;0.70;99.90
21563;DHT22;10942;47.894;11.424;2022-12-19T17:18:00;0.70;99.90
21563;DHT22;10942;47.894;11.424;2022-12-19T17:20:34;0.60;99.90
21563;DHT22;10942;47.894;11.424;2022-12-19T17:23:01;0.60;99.90
21563;DHT22;10942;47.894;11.424;2022-12-19T17:25:27;0.60;99.90
21563;DHT22;10942;47.894;11.424;2022-12-19T17:27:54;0.60;99.90
21563;DHT22;10942;47.894;11.424;2022-12-19T17:30:20;0.60;99.90
21563;DHT22;10942;47.894;11.424;2022-12-19T17:32:49;0.60;99.90
21563;DHT22;10942;47.894;11.424;2022-12-19T17:35:22;0.60;99.90
21563;DHT22;10942;47.894;11.424;2022-12-19T17:37:51;0.60;99.90
21563;DHT22;10942;47.894;11.424;2022-12-19T17:40:26;0.60;99.90